createdAt,value
2017-05-27T00:00:25.873Z,21.04
2017-05-27T00:01:27.847Z,20.89
2017-05-27T00:02:29.913Z,20.93
2017-05-27T00:04:13.309Z,20.98
2017-05-27T00:05:15.218Z,20.83
2017-05-27T00:06:17.164Z,20.91
2017-05-27T00:07:19.134Z,20.89
2017-05-27T00:08:21.200Z,20.80
2017-05-27T00:09:23.434Z,20.79
2017-05-27T00:10:25.584Z,20.80
2017-05-27T00:11:28.299Z,20.81
2017-05-27T00:12:30.605Z,20.79
2017-05-27T00:13:32.739Z,20.79
2017-05-27T00:14:34.749Z,20.80
2017-05-27T00:15:36.906Z,20.79
2017-05-27T00:16:38.859Z,20.76
2017-05-27T00:17:41.087Z,20.76
2017-05-27T00:18:43.028Z,20.71
2017-05-27T00:19:44.965Z,20.68
2017-05-27T00:20:47.106Z,20.66
2017-05-27T00:21:49.017Z,20.72
2017-05-27T00:22:50.941Z,20.77
2017-05-27T00:23:52.792Z,20.72
2017-05-27T00:24:54.778Z,20.74
2017-05-27T00:25:56.817Z,20.74
2017-05-27T00:26:58.966Z,20.69
2017-05-27T00:28:01.059Z,20.58
2017-05-27T00:29:02.941Z,20.59
2017-05-27T00:30:05.039Z,20.58
2017-05-27T00:31:06.992Z,20.66
2017-05-27T00:32:08.857Z,20.61
2017-05-27T00:33:11.032Z,20.72
2017-05-27T00:34:13.027Z,20.50
2017-05-27T00:35:15.009Z,20.69
2017-05-27T00:36:16.859Z,20.64
2017-05-27T00:37:18.787Z,20.61
2017-05-27T00:38:21.279Z,20.66
2017-05-27T00:39:23.268Z,20.58
2017-05-27T00:40:25.366Z,20.62
2017-05-27T00:41:27.393Z,20.62
2017-05-27T00:42:29.588Z,20.56
2017-05-27T00:43:31.555Z,20.62
2017-05-27T00:44:33.457Z,20.51
2017-05-27T00:45:35.794Z,20.54
2017-05-27T00:46:37.914Z,20.54
2017-05-27T00:47:39.821Z,20.68
2017-05-27T00:48:41.684Z,20.66
2017-05-27T00:49:43.738Z,20.68
2017-05-27T00:50:45.899Z,20.66
2017-05-27T00:51:47.900Z,20.71
2017-05-27T00:52:49.672Z,20.71
2017-05-27T00:53:51.693Z,20.64
2017-05-27T00:54:53.520Z,20.59
2017-05-27T00:55:55.650Z,20.66
2017-05-27T00:56:58.269Z,20.62
2017-05-27T00:58:00.389Z,20.65
2017-05-27T00:59:02.516Z,20.69
2017-05-27T01:00:04.485Z,20.61
2017-05-27T01:01:06.433Z,20.64
2017-05-27T01:02:08.392Z,20.58
2017-05-27T01:03:10.545Z,20.50
2017-05-27T01:04:12.332Z,20.62
2017-05-27T01:05:14.176Z,20.62
2017-05-27T01:06:16.228Z,20.68
2017-05-27T01:07:18.116Z,20.61
2017-05-27T01:08:19.964Z,20.62
2017-05-27T01:09:22.002Z,20.61
2017-05-27T01:10:23.903Z,20.50
2017-05-27T01:11:25.815Z,20.49
2017-05-27T01:12:27.890Z,20.51
2017-05-27T01:13:29.760Z,20.49
2017-05-27T01:14:31.622Z,20.54
2017-05-27T01:15:33.576Z,20.53
2017-05-27T01:16:35.647Z,20.49
2017-05-27T01:17:37.485Z,20.54
2017-05-27T01:18:39.381Z,20.50
2017-05-27T01:19:41.348Z,20.51
2017-05-27T01:20:43.329Z,20.51
2017-05-27T01:21:45.307Z,20.47
2017-05-27T01:22:47.129Z,20.59
2017-05-27T01:23:49.340Z,20.49
2017-05-27T01:24:51.283Z,20.56
2017-05-27T01:25:53.237Z,20.54
2017-05-27T01:26:55.090Z,20.50
2017-05-27T01:27:57.728Z,20.54
2017-05-27T01:28:59.986Z,20.59
2017-05-27T01:30:01.895Z,20.54
2017-05-27T01:31:04.651Z,20.53
2017-05-27T01:32:06.722Z,20.49
2017-05-27T01:33:08.637Z,20.47
2017-05-27T01:34:10.686Z,20.53
2017-05-27T01:35:12.518Z,20.46
2017-05-27T01:36:14.467Z,20.50
2017-05-27T01:37:16.361Z,20.46
2017-05-27T01:38:18.266Z,20.46
2017-05-27T01:39:20.358Z,20.31
2017-05-27T01:40:22.280Z,20.24
2017-05-27T01:41:24.357Z,20.33
2017-05-27T01:42:26.173Z,20.31
2017-05-27T01:43:28.492Z,20.30
2017-05-27T01:44:30.409Z,20.34
2017-05-27T01:45:32.563Z,20.25
2017-05-27T01:46:34.457Z,20.23
2017-05-27T01:47:36.221Z,20.25
2017-05-27T01:48:38.276Z,20.23
2017-05-27T01:49:40.229Z,20.18
2017-05-27T01:50:42.286Z,20.20
2017-05-27T01:51:44.173Z,20.13
2017-05-27T01:52:46.235Z,20.20
2017-05-27T01:53:48.274Z,20.18
2017-05-27T01:54:50.399Z,20.18
2017-05-27T01:55:52.269Z,20.25
2017-05-27T01:56:54.046Z,20.16
2017-05-27T01:57:55.844Z,20.09
2017-05-27T01:58:57.880Z,20.10
2017-05-27T01:59:59.827Z,20.08
2017-05-27T02:01:02.045Z,20.13
2017-05-27T02:02:04.107Z,20.10
2017-05-27T02:03:06.163Z,20.16
2017-05-27T02:04:08.346Z,20.00
2017-05-27T02:05:10.359Z,20.02
2017-05-27T02:06:12.411Z,19.86
2017-05-27T02:07:14.318Z,19.90
2017-05-27T02:08:16.323Z,19.86
2017-05-27T02:09:18.325Z,19.98
2017-05-27T02:10:20.397Z,19.97
2017-05-27T02:11:22.316Z,19.95
2017-05-27T02:12:24.444Z,20.03
2017-05-27T02:13:26.437Z,20.02
2017-05-27T02:14:28.378Z,19.97
2017-05-27T02:15:30.430Z,19.98
2017-05-27T02:16:32.403Z,20.00
2017-05-27T02:17:34.269Z,19.87
2017-05-27T02:18:36.202Z,19.93
2017-05-27T02:19:38.099Z,19.87
2017-05-27T02:20:40.262Z,20.02
2017-05-27T02:21:42.400Z,19.91
2017-05-27T02:22:44.579Z,19.84
2017-05-27T02:23:46.626Z,19.87
2017-05-27T02:24:49.219Z,19.84
2017-05-27T02:25:51.336Z,19.88
2017-05-27T02:26:53.208Z,19.80
2017-05-27T02:27:55.105Z,19.78
2017-05-27T02:28:57.025Z,19.79
2017-05-27T02:29:58.919Z,19.80
2017-05-27T02:31:01.195Z,19.78
2017-05-27T02:32:03.406Z,19.80
2017-05-27T02:33:05.478Z,19.75
2017-05-27T02:34:07.544Z,19.75
2017-05-27T02:35:09.676Z,19.75
2017-05-27T02:36:11.787Z,19.80
2017-05-27T02:37:13.701Z,19.76
2017-05-27T02:38:15.549Z,19.75
2017-05-27T02:39:17.558Z,19.70
2017-05-27T02:40:19.734Z,19.66
2017-05-27T02:41:21.819Z,19.65
2017-05-27T02:42:23.871Z,19.70
2017-05-27T02:43:25.974Z,19.70
2017-05-27T02:44:28.455Z,19.68
2017-05-27T02:45:30.331Z,19.70
2017-05-27T02:46:32.279Z,19.66
2017-05-27T02:47:34.180Z,19.54
2017-05-27T02:48:36.218Z,19.55
2017-05-27T02:49:38.320Z,19.60
2017-05-27T02:50:40.222Z,19.61
2017-05-27T02:51:42.334Z,19.58
2017-05-27T02:52:44.377Z,19.61
2017-05-27T02:53:46.466Z,19.57
2017-05-27T02:54:48.344Z,19.53
2017-05-27T02:55:50.222Z,19.53
2017-05-27T02:56:52.265Z,19.46
2017-05-27T02:57:54.190Z,19.46
2017-05-27T02:58:56.027Z,19.33
2017-05-27T02:59:58.004Z,19.39
2017-05-27T03:01:00.082Z,19.35
2017-05-27T03:02:02.181Z,19.33
2017-05-27T03:03:04.285Z,19.31
2017-05-27T03:04:06.248Z,19.40
2017-05-27T03:05:08.140Z,19.31
2017-05-27T03:06:10.145Z,19.31
2017-05-27T03:07:12.121Z,19.28
2017-05-27T03:08:14.292Z,19.23
2017-05-27T03:09:16.397Z,19.25
2017-05-27T03:10:18.371Z,19.31
2017-05-27T03:11:20.513Z,19.15
2017-05-27T03:12:22.660Z,19.23
2017-05-27T03:13:24.630Z,19.13
2017-05-27T03:14:26.520Z,19.18
2017-05-27T03:15:28.644Z,19.02
2017-05-27T03:16:30.723Z,19.20
2017-05-27T03:17:32.758Z,19.08
2017-05-27T03:18:34.865Z,19.08
2017-05-27T03:19:37.036Z,19.06
2017-05-27T03:20:38.886Z,19.01
2017-05-27T03:21:40.813Z,19.06
2017-05-27T03:22:42.918Z,19.05
2017-05-27T03:23:44.988Z,19.05
2017-05-27T03:24:46.821Z,18.97
2017-05-27T03:25:48.900Z,18.92
2017-05-27T03:26:50.784Z,18.94
2017-05-27T03:27:52.901Z,18.95
2017-05-27T03:28:55.018Z,18.94
2017-05-27T03:29:57.720Z,18.98
2017-05-27T03:30:59.806Z,18.99
2017-05-27T03:32:01.789Z,18.86
2017-05-27T03:33:03.824Z,18.98
2017-05-27T03:34:05.696Z,18.94
2017-05-27T03:35:07.888Z,18.97
2017-05-27T03:36:10.203Z,18.97
2017-05-27T03:37:12.134Z,18.95
2017-05-27T03:38:14.061Z,18.97
2017-05-27T03:39:16.122Z,18.87
2017-05-27T03:40:18.151Z,18.90
2017-05-27T03:41:20.197Z,18.97
2017-05-27T03:42:22.271Z,18.99
2017-05-27T03:43:24.228Z,18.99
2017-05-27T03:44:26.200Z,18.91
2017-05-27T03:45:28.300Z,18.95
2017-05-27T03:46:30.210Z,18.94
2017-05-27T03:47:32.290Z,18.97
2017-05-27T03:48:34.203Z,19.08
2017-05-27T03:49:36.405Z,18.99
2017-05-27T03:50:38.461Z,19.06
2017-05-27T03:51:40.327Z,19.05
2017-05-27T03:52:42.267Z,18.98
2017-05-27T03:53:44.207Z,19.06
2017-05-27T03:54:46.288Z,19.01
2017-05-27T03:55:48.413Z,19.05
2017-05-27T03:56:50.666Z,19.02
2017-05-27T03:57:52.583Z,18.98
2017-05-27T03:58:54.456Z,18.92
2017-05-27T03:59:56.532Z,18.97
2017-05-27T04:00:58.614Z,19.08
2017-05-27T04:02:00.705Z,19.02
2017-05-27T04:03:02.900Z,18.99
2017-05-27T04:04:04.863Z,19.08
2017-05-27T04:05:06.786Z,18.97
2017-05-27T04:06:09.017Z,18.99
2017-05-27T04:07:11.087Z,19.05
2017-05-27T04:08:12.976Z,19.01
2017-05-27T04:09:15.057Z,18.98
2017-05-27T04:10:16.900Z,18.99
2017-05-27T04:11:18.808Z,19.05
2017-05-27T04:12:20.832Z,19.05
2017-05-27T04:13:22.965Z,18.95
2017-05-27T04:14:25.055Z,19.05
2017-05-27T04:15:27.058Z,19.05
2017-05-27T04:16:29.058Z,19.10
2017-05-27T04:17:31.278Z,19.08
2017-05-27T04:18:33.233Z,19.02
2017-05-27T04:19:35.315Z,18.94
2017-05-27T04:20:37.264Z,18.97
2017-05-27T04:21:39.233Z,19.08
2017-05-27T04:22:41.255Z,19.01
2017-05-27T04:23:43.343Z,18.98
2017-05-27T04:24:45.415Z,19.01
2017-05-27T04:25:47.580Z,19.01
2017-05-27T04:26:49.602Z,19.06
2017-05-27T04:27:51.556Z,18.92
2017-05-27T04:28:53.452Z,19.01
2017-05-27T04:29:55.354Z,19.06
2017-05-27T04:30:57.259Z,19.05
2017-05-27T04:31:59.118Z,19.06
2017-05-27T04:33:01.223Z,19.02
2017-05-27T04:34:03.244Z,19.02
2017-05-27T04:35:05.358Z,19.02
2017-05-27T04:36:07.436Z,19.10
2017-05-27T04:37:09.506Z,19.14
2017-05-27T04:38:11.677Z,19.18
2017-05-27T04:39:13.729Z,19.13
2017-05-27T04:40:15.716Z,19.13
2017-05-27T04:41:17.675Z,19.17
2017-05-27T04:42:19.721Z,19.17
2017-05-27T04:43:21.578Z,19.10
2017-05-27T04:44:23.640Z,19.10
2017-05-27T04:45:25.488Z,19.02
2017-05-27T04:46:27.552Z,19.05
2017-05-27T04:47:29.527Z,19.13
2017-05-27T04:48:31.360Z,19.10
2017-05-27T04:49:33.264Z,19.11
2017-05-27T04:50:35.325Z,19.18
2017-05-27T04:51:37.305Z,19.21
2017-05-27T04:52:39.316Z,19.23
2017-05-27T04:53:41.457Z,19.25
2017-05-27T04:54:43.365Z,19.23
2017-05-27T04:55:45.220Z,19.32
2017-05-27T04:56:47.287Z,19.20
2017-05-27T04:57:49.183Z,19.25
2017-05-27T04:58:51.033Z,19.23
2017-05-27T04:59:53.042Z,19.23
2017-05-27T05:00:55.046Z,19.23
2017-05-27T05:01:56.992Z,19.32
2017-05-27T05:02:59.003Z,19.35
2017-05-27T05:04:00.778Z,19.33
2017-05-27T05:05:02.679Z,19.38
2017-05-27T05:06:04.798Z,19.39
2017-05-27T05:07:06.894Z,19.46
2017-05-27T05:08:09.046Z,19.53
2017-05-27T05:09:11.259Z,19.43
2017-05-27T05:10:13.150Z,19.46
2017-05-27T05:11:15.030Z,19.42
2017-05-27T05:12:16.972Z,19.39
2017-05-27T05:13:19.010Z,19.48
2017-05-27T05:14:20.942Z,19.47
2017-05-27T05:15:22.820Z,19.48
2017-05-27T05:16:25.077Z,19.66
2017-05-27T05:17:27.123Z,19.51
2017-05-27T05:18:29.163Z,19.57
2017-05-27T05:19:30.996Z,19.55
2017-05-27T05:20:33.112Z,19.65
2017-05-27T05:21:34.951Z,19.61
2017-05-27T05:22:36.787Z,19.66
2017-05-27T05:23:38.786Z,19.66
2017-05-27T05:24:40.690Z,19.65
2017-05-27T05:25:42.575Z,19.73
2017-05-27T05:26:44.513Z,19.78
2017-05-27T05:27:46.404Z,19.83
2017-05-27T05:28:48.334Z,19.88
2017-05-27T05:29:50.336Z,19.98
2017-05-27T05:30:52.348Z,19.98
2017-05-27T05:31:54.241Z,20.06
2017-05-27T05:32:56.176Z,20.18
2017-05-27T05:33:58.372Z,20.20
2017-05-27T05:35:00.710Z,20.34
2017-05-27T05:36:02.799Z,20.28
2017-05-27T05:37:04.915Z,20.50
2017-05-27T05:38:06.872Z,20.51
2017-05-27T05:39:08.899Z,20.69
2017-05-27T05:40:10.877Z,20.84
2017-05-27T05:41:12.926Z,21.05
2017-05-27T05:42:14.828Z,21.26
2017-05-27T05:43:16.964Z,21.67
2017-05-27T05:44:18.836Z,22.02
2017-05-27T05:45:20.972Z,22.27
2017-05-27T05:46:23.005Z,22.60
2017-05-27T05:47:24.983Z,23.07
2017-05-27T05:48:27.056Z,23.05
2017-05-27T05:49:28.881Z,23.12
2017-05-27T05:50:31.130Z,23.26
2017-05-27T05:51:32.994Z,23.55
2017-05-27T05:52:35.037Z,23.95
2017-05-27T05:53:36.883Z,24.41
2017-05-27T05:54:39.206Z,24.98
2017-05-27T05:55:41.310Z,25.16
2017-05-27T05:56:43.338Z,25.27
2017-05-27T05:57:45.298Z,25.49
2017-05-27T05:58:47.360Z,25.80
2017-05-27T05:59:49.209Z,26.25
2017-05-27T06:00:51.347Z,26.89
2017-05-27T06:01:53.261Z,27.61
2017-05-27T06:02:55.392Z,28.21
2017-05-27T06:03:57.443Z,28.60
2017-05-27T06:06:23.312Z,28.95
2017-05-27T06:07:24.882Z,28.96
2017-05-27T06:08:26.549Z,29.44
2017-05-27T06:09:28.453Z,29.82
2017-05-27T06:10:30.331Z,30.30
2017-05-27T06:11:32.267Z,30.76
2017-05-27T06:12:34.036Z,31.02
2017-05-27T06:13:36.259Z,31.35
2017-05-27T06:14:38.131Z,31.55
2017-05-27T06:15:40.035Z,31.45
2017-05-27T06:16:42.182Z,30.98
2017-05-27T06:17:44.265Z,31.20
2017-05-27T06:18:46.211Z,31.21
2017-05-27T06:19:48.135Z,31.15
2017-05-27T06:20:50.314Z,31.06
2017-05-27T06:21:52.081Z,31.12
2017-05-27T06:22:54.269Z,31.17
2017-05-27T06:23:56.480Z,31.65
2017-05-27T06:24:58.214Z,32.10
2017-05-27T06:26:00.229Z,32.25
2017-05-27T06:27:02.313Z,31.98
2017-05-27T06:28:04.204Z,31.93
2017-05-27T06:29:06.069Z,32.33
2017-05-27T06:30:08.163Z,32.42
2017-05-27T06:31:09.958Z,32.22
2017-05-27T06:32:12.028Z,32.02
2017-05-27T06:33:13.893Z,31.87
2017-05-27T06:34:15.701Z,31.95
2017-05-27T06:35:17.683Z,32.24
2017-05-27T06:36:19.668Z,32.10
2017-05-27T06:37:21.749Z,32.25
2017-05-27T06:38:23.815Z,32.61
2017-05-27T06:39:25.683Z,32.89
2017-05-27T06:40:27.711Z,33.45
2017-05-27T06:41:29.723Z,33.94
2017-05-27T06:42:31.803Z,34.56
2017-05-27T06:43:34.029Z,34.61
2017-05-27T06:44:35.764Z,35.18
2017-05-27T06:45:37.708Z,35.57
2017-05-27T06:46:39.610Z,35.42
2017-05-27T06:47:41.485Z,34.76
2017-05-27T06:48:43.317Z,35.25
2017-05-27T06:49:45.335Z,34.99
2017-05-27T06:50:47.243Z,35.28
2017-05-27T06:51:49.323Z,35.23
2017-05-27T06:52:51.531Z,35.52
2017-05-27T06:53:53.538Z,35.52
2017-05-27T06:54:55.371Z,35.47
2017-05-27T06:55:57.223Z,35.15
2017-05-27T06:56:58.989Z,35.40
2017-05-27T06:58:00.889Z,35.17
2017-05-27T06:59:03.163Z,35.21
2017-05-27T07:00:05.407Z,35.64
2017-05-27T07:01:07.675Z,35.86
2017-05-27T07:02:09.843Z,35.70
2017-05-27T07:03:11.812Z,36.08
2017-05-27T07:04:13.802Z,36.17
2017-05-27T07:05:15.829Z,36.30
2017-05-27T07:06:17.745Z,36.51
2017-05-27T07:07:20.051Z,35.67
2017-05-27T07:08:22.009Z,35.67
2017-05-27T07:09:23.883Z,35.73
2017-05-27T07:10:25.734Z,36.11
2017-05-27T07:11:27.621Z,36.52
2017-05-27T07:12:29.619Z,36.58
2017-05-27T07:13:31.585Z,36.45
2017-05-27T07:14:33.694Z,35.76
2017-05-27T07:15:35.724Z,35.60
2017-05-27T07:16:37.787Z,34.95
2017-05-27T07:17:39.671Z,34.60
2017-05-27T07:18:41.664Z,34.34
2017-05-27T07:19:43.685Z,33.79
2017-05-27T07:20:45.795Z,33.30
2017-05-27T07:21:47.891Z,32.73
2017-05-27T07:22:49.964Z,32.33
2017-05-27T07:23:52.011Z,31.85
2017-05-27T07:24:53.916Z,31.33
2017-05-27T07:25:55.878Z,30.84
2017-05-27T07:26:57.912Z,30.07
2017-05-27T07:28:00.046Z,29.81
2017-05-27T07:29:02.253Z,29.52
2017-05-27T07:30:04.223Z,29.08
2017-05-27T07:31:06.222Z,28.90
2017-05-27T07:32:07.978Z,28.48
2017-05-27T07:33:10.274Z,28.29
2017-05-27T07:34:12.001Z,27.94
2017-05-27T07:35:14.051Z,27.35
2017-05-27T07:36:16.195Z,27.04
2017-05-27T07:37:18.087Z,26.96
2017-05-27T07:38:19.711Z,26.73
2017-05-27T07:39:21.727Z,26.64
2017-05-27T07:40:25.621Z,26.43
2017-05-27T07:41:27.707Z,26.18
2017-05-27T07:42:29.559Z,26.06
2017-05-27T07:43:31.574Z,25.93
2017-05-27T07:44:33.420Z,25.86
2017-05-27T07:45:35.482Z,25.67
2017-05-27T07:46:37.433Z,25.72
2017-05-27T07:47:39.255Z,25.54
2017-05-27T07:48:41.493Z,25.49
2017-05-27T07:49:44.209Z,25.30
2017-05-27T07:50:46.362Z,25.17
2017-05-27T07:51:48.281Z,25.20
2017-05-27T07:52:50.418Z,25.02
2017-05-27T07:53:52.547Z,25.13
2017-05-27T07:54:54.416Z,25.15
2017-05-27T07:55:56.524Z,25.17
2017-05-27T07:56:59.517Z,25.17
2017-05-27T07:58:01.734Z,25.15
2017-05-27T07:59:03.700Z,25.20
2017-05-27T08:00:05.794Z,25.09
2017-05-27T08:01:07.596Z,25.16
2017-05-27T08:02:09.597Z,25.16
2017-05-27T08:03:11.842Z,25.20
2017-05-27T08:04:13.691Z,25.17
2017-05-27T08:05:15.560Z,25.24
2017-05-27T08:06:17.358Z,25.22
2017-05-27T08:07:19.618Z,25.30
2017-05-27T08:08:21.839Z,25.30
2017-05-27T08:09:24.060Z,25.35
2017-05-27T08:10:25.978Z,25.46
2017-05-27T08:11:28.000Z,25.65
2017-05-27T08:13:17.714Z,25.86
2017-05-27T08:14:19.481Z,25.99
2017-05-27T08:15:22.077Z,26.11
2017-05-27T08:16:24.533Z,26.24
2017-05-27T09:49:27.020Z,29.10
2017-05-27T09:50:28.958Z,29.13
2017-05-27T09:51:30.717Z,29.23
2017-05-27T09:52:32.861Z,29.25
2017-05-27T09:53:34.956Z,29.33
2017-05-27T09:54:37.030Z,29.50
2017-05-27T09:55:39.133Z,29.49
2017-05-27T09:56:41.328Z,29.59
2017-05-27T09:57:43.263Z,29.59
2017-05-27T09:58:45.409Z,29.66
2017-05-27T09:59:47.257Z,29.65
2017-05-27T10:00:49.006Z,29.66
2017-05-27T10:01:51.254Z,29.78
2017-05-27T10:03:40.718Z,29.93
2017-05-27T14:29:45.100Z,31.45
2017-05-27T14:30:46.530Z,30.96
2017-05-27T14:31:24.253Z,30.67
2017-05-27T14:32:25.688Z,30.31
2017-05-27T14:33:27.115Z,29.79
2017-05-27T14:46:23.705Z,26.96
2017-05-27T14:47:25.133Z,26.77
2017-05-27T14:48:26.563Z,26.64
2017-05-27T14:49:27.993Z,26.58
2017-05-27T14:50:29.421Z,26.49
2017-05-27T14:51:30.848Z,26.42
2017-05-27T14:52:32.278Z,26.31
2017-05-27T14:53:33.701Z,26.27
2017-05-27T14:54:05.011Z,26.29
2017-05-27T14:57:06.457Z,26.04
2017-05-27T15:00:07.902Z,25.91
2017-05-27T15:28:25.495Z,30.64
2017-05-27T15:29:26.385Z,30.37
2017-05-27T15:31:27.828Z,29.87
2017-05-27T15:33:29.269Z,29.29
2017-05-27T15:35:30.710Z,28.80
2017-05-27T15:37:32.148Z,28.32
2017-05-27T15:39:33.586Z,28.01
2017-05-27T15:41:35.026Z,27.74
2017-05-27T16:11:18.175Z,30.96
